createdAt,value
2022-11-10T00:02:09.509Z,9.18
2022-11-10T00:04:54.690Z,9.28
2022-11-10T00:07:40.355Z,9.32
2022-11-10T00:10:25.768Z,9.37
2022-11-10T00:13:11.032Z,9.44
2022-11-10T00:16:21.069Z,9.48
2022-11-10T00:19:06.261Z,9.50
2022-11-10T00:21:51.542Z,9.57
2022-11-10T00:24:36.937Z,9.56
2022-11-10T00:27:22.375Z,9.55
2022-11-10T00:30:07.866Z,9.55
2022-11-10T00:32:52.864Z,9.58
2022-11-10T00:35:38.171Z,9.52
2022-11-10T00:38:23.452Z,9.50
2022-11-10T00:41:08.721Z,9.48
2022-11-10T00:43:54.460Z,9.49
2022-11-10T00:46:39.464Z,9.47
2022-11-10T00:49:24.810Z,9.47
2022-11-10T00:52:10.357Z,9.46
2022-11-10T00:54:55.550Z,9.42
2022-11-10T00:57:40.867Z,9.46
2022-11-10T01:00:26.015Z,9.41
2022-11-10T01:03:16.642Z,9.37
2022-11-10T01:06:06.334Z,9.37
2022-11-10T01:08:51.641Z,9.41
2022-11-10T01:11:36.929Z,9.35
2022-11-10T01:14:22.283Z,9.30
2022-11-10T01:17:07.894Z,9.31
2022-11-10T01:19:53.204Z,9.30
2022-11-10T01:22:38.752Z,9.35
2022-11-10T01:25:23.670Z,9.35
2022-11-10T01:28:08.935Z,9.33
2022-11-10T01:31:11.708Z,9.37
2022-11-10T01:33:59.209Z,9.36
2022-11-10T01:36:44.521Z,9.38
2022-11-10T01:39:29.755Z,9.42
2022-11-10T01:42:15.120Z,9.45
2022-11-10T01:45:24.942Z,9.53
2022-11-10T01:48:16.510Z,9.56
2022-11-10T01:51:08.513Z,9.55
2022-11-10T01:54:01.362Z,9.60
2022-11-10T01:56:52.073Z,9.68
2022-11-10T01:59:43.122Z,9.71
2022-11-10T02:03:15.651Z,9.74
2022-11-10T02:06:01.641Z,9.77
2022-11-10T02:08:47.628Z,9.73
2022-11-10T02:11:34.479Z,9.74
2022-11-10T02:14:19.681Z,9.76
2022-11-10T02:17:05.025Z,9.77
2022-11-10T02:19:52.624Z,9.82
2022-11-10T02:22:37.877Z,9.87
2022-11-10T02:25:25.508Z,9.91
2022-11-10T02:28:10.598Z,9.97
2022-11-10T02:30:55.936Z,10.02
2022-11-10T02:33:41.343Z,10.08
2022-11-10T02:36:26.705Z,10.12
2022-11-10T02:39:11.837Z,10.15
2022-11-10T02:41:57.230Z,10.19
2022-11-10T02:44:42.961Z,10.20
2022-11-10T02:47:27.986Z,10.29
2022-11-10T02:50:13.261Z,10.30
2022-11-10T02:52:58.461Z,10.32
2022-11-10T02:55:43.614Z,10.41
2022-11-10T02:58:29.089Z,10.45
2022-11-10T03:01:14.370Z,10.49
2022-11-10T03:03:59.784Z,10.60
2022-11-10T03:06:45.358Z,10.67
2022-11-10T03:09:30.504Z,10.77
2022-11-10T03:12:16.061Z,10.77
2022-11-10T03:15:01.045Z,10.83
2022-11-10T03:17:46.315Z,10.88
2022-11-10T03:20:31.483Z,10.95
2022-11-10T03:23:18.674Z,10.98
2022-11-10T03:26:05.398Z,11.06
2022-11-10T03:28:50.807Z,11.14
2022-11-10T03:31:35.868Z,11.17
2022-11-10T03:34:21.009Z,11.23
2022-11-10T03:37:06.218Z,11.30
2022-11-10T03:39:51.460Z,11.33
2022-11-10T03:42:36.655Z,11.36
2022-11-10T03:45:21.992Z,11.40
2022-11-10T03:48:07.201Z,11.44
2022-11-10T03:50:52.667Z,11.47
2022-11-10T03:53:37.737Z,11.50
2022-11-10T03:56:23.033Z,11.48
2022-11-10T03:59:08.318Z,11.49
2022-11-10T04:01:53.727Z,11.52
2022-11-10T04:04:57.700Z,11.44
2022-11-10T04:08:01.487Z,11.49
2022-11-10T04:10:47.000Z,11.55
2022-11-10T04:13:50.897Z,11.59
2022-11-10T04:16:36.297Z,11.71
2022-11-10T04:19:21.648Z,11.76
2022-11-10T04:22:06.923Z,11.83
2022-11-10T04:24:52.144Z,11.82
2022-11-10T04:27:39.073Z,11.79
2022-11-10T04:30:24.287Z,11.71
2022-11-10T04:33:09.469Z,11.59
2022-11-10T04:35:54.990Z,11.53
2022-11-10T04:38:40.776Z,11.52
2022-11-10T04:41:27.575Z,11.49
2022-11-10T04:44:12.823Z,11.56
2022-11-10T04:46:58.068Z,11.63
2022-11-10T04:49:43.188Z,11.73
2022-11-10T04:52:28.874Z,11.72
2022-11-10T04:55:14.109Z,11.76
2022-11-10T04:57:59.405Z,11.77
2022-11-10T05:00:44.940Z,11.69
2022-11-10T05:03:30.283Z,11.62
2022-11-10T05:06:15.857Z,11.52
2022-11-10T05:09:00.910Z,11.53
2022-11-10T05:11:46.154Z,11.57
2022-11-10T05:14:31.741Z,11.57
2022-11-10T05:17:17.469Z,11.53
2022-11-10T05:20:02.943Z,11.48
2022-11-10T05:23:09.590Z,11.53
2022-11-10T05:25:54.947Z,11.62
2022-11-10T05:28:42.027Z,11.59
2022-11-10T05:31:26.874Z,11.56
2022-11-10T05:34:12.256Z,11.52
2022-11-10T05:36:57.560Z,11.58
2022-11-10T05:39:42.721Z,11.64
2022-11-10T05:42:27.993Z,11.70
2022-11-10T05:45:14.682Z,11.69
2022-11-10T05:47:59.934Z,11.72
2022-11-10T05:50:45.327Z,11.76
2022-11-10T05:53:30.557Z,11.81
2022-11-10T05:56:16.250Z,11.67
2022-11-10T05:59:01.289Z,11.64
2022-11-10T06:01:46.560Z,11.70
2022-11-10T06:04:31.802Z,11.71
2022-11-10T06:07:17.186Z,11.69
2022-11-10T06:10:02.411Z,11.76
2022-11-10T06:12:47.686Z,11.81
2022-11-10T06:15:33.247Z,11.80
2022-11-10T06:18:18.871Z,11.88
2022-11-10T06:21:04.047Z,11.88
2022-11-10T06:23:49.208Z,11.94
2022-11-10T06:26:34.687Z,11.92
2022-11-10T06:29:25.543Z,11.93
2022-11-10T06:32:12.306Z,11.82
2022-11-10T06:35:00.490Z,11.82
2022-11-10T06:37:46.459Z,11.85
2022-11-10T06:40:32.995Z,11.78
2022-11-10T06:43:18.104Z,11.72
2022-11-10T06:46:03.611Z,11.71
2022-11-10T06:48:48.475Z,11.78
2022-11-10T06:51:33.922Z,11.75
2022-11-10T07:06:25.930Z,11.61
2022-11-10T07:10:06.610Z,11.65
2022-11-10T07:12:59.829Z,11.62
2022-11-10T07:15:44.859Z,11.57
2022-11-10T07:18:30.386Z,11.54
2022-11-10T07:21:15.532Z,11.56
2022-11-10T07:24:00.810Z,11.54
2022-11-10T07:26:46.017Z,11.57
2022-11-10T07:29:31.302Z,11.61
2022-11-10T07:32:16.643Z,11.59
2022-11-10T07:35:01.726Z,11.58
2022-11-10T07:37:46.916Z,11.64
2022-11-10T07:40:33.046Z,11.63
2022-11-10T07:43:18.458Z,11.67
2022-11-10T07:46:04.020Z,11.68
2022-11-10T07:48:49.349Z,11.84
2022-11-10T07:51:34.490Z,11.85
2022-11-10T07:54:20.035Z,11.87
2022-11-10T07:57:04.872Z,11.85
2022-11-10T07:59:52.879Z,11.91
2022-11-10T08:02:40.718Z,11.87
2022-11-10T08:05:25.968Z,11.88
2022-11-10T08:08:12.061Z,11.87
2022-11-10T08:10:57.862Z,11.90
2022-11-10T08:13:43.397Z,11.91
2022-11-10T08:16:28.776Z,11.91
2022-11-10T08:19:13.947Z,11.90
2022-11-10T08:21:59.317Z,11.93
2022-11-10T08:24:44.543Z,11.92
2022-11-10T08:27:29.741Z,11.92
2022-11-10T08:30:15.308Z,12.01
2022-11-10T08:33:01.848Z,12.04
2022-11-10T08:35:49.132Z,12.09
2022-11-10T08:38:34.417Z,12.07
2022-11-10T08:41:19.543Z,12.07
2022-11-10T08:44:08.171Z,12.06
2022-11-10T08:46:56.105Z,12.13
2022-11-10T08:49:41.531Z,12.09
2022-11-10T08:52:26.894Z,12.13
2022-11-10T08:55:12.090Z,12.16
2022-11-10T08:58:02.101Z,12.09
2022-11-10T09:00:47.878Z,12.11
2022-11-10T09:03:33.117Z,12.17
2022-11-10T09:06:18.424Z,12.18
2022-11-10T09:09:03.798Z,12.19
2022-11-10T09:11:49.057Z,12.30
2022-11-10T09:14:34.420Z,12.33
2022-11-10T09:17:19.587Z,12.36
2022-11-10T09:20:06.811Z,12.42
2022-11-10T09:22:52.103Z,12.42
2022-11-10T09:25:38.364Z,12.50
2022-11-10T09:28:24.498Z,12.54
2022-11-10T09:31:09.640Z,12.61
2022-11-10T09:33:54.701Z,12.65
2022-11-10T09:36:40.446Z,12.71
2022-11-10T09:39:25.358Z,12.70
2022-11-10T09:42:38.765Z,12.79
2022-11-10T09:45:37.831Z,12.85
2022-11-10T09:48:41.975Z,12.86
2022-11-10T09:51:42.763Z,12.85
2022-11-10T09:54:49.059Z,12.85
2022-11-10T09:57:34.195Z,12.84
2022-11-10T10:00:19.721Z,12.81
2022-11-10T10:03:06.357Z,12.94
2022-11-10T10:06:05.241Z,12.95
2022-11-10T10:09:04.841Z,12.98
2022-11-10T10:11:53.134Z,12.98
2022-11-10T10:14:46.530Z,12.98
2022-11-10T10:17:53.958Z,13.03
2022-11-10T10:20:58.039Z,12.94
2022-11-10T10:24:10.039Z,12.95
2022-11-10T10:27:00.740Z,12.96
2022-11-10T10:29:49.249Z,13.02
2022-11-10T10:32:34.478Z,12.96
2022-11-10T10:35:19.802Z,12.99
2022-11-10T10:38:16.075Z,13.05
2022-11-10T10:41:12.953Z,13.07
2022-11-10T10:44:01.392Z,13.09
2022-11-10T10:46:55.308Z,13.13
2022-11-10T10:49:40.293Z,13.17
2022-11-10T10:52:26.819Z,13.24
2022-11-10T10:55:14.161Z,13.19
2022-11-10T10:58:06.368Z,13.24
2022-11-10T11:01:18.316Z,13.31
2022-11-10T11:04:27.043Z,13.36
2022-11-10T11:07:24.365Z,13.37
2022-11-10T11:10:34.390Z,13.52
2022-11-10T11:13:27.368Z,13.48
2022-11-10T11:16:12.796Z,13.50
2022-11-10T11:18:58.862Z,13.59
2022-11-10T11:21:49.993Z,13.65
2022-11-10T11:24:57.208Z,13.76
2022-11-10T11:28:20.844Z,13.88
2022-11-10T11:31:30.622Z,13.89
2022-11-10T11:34:25.674Z,13.95
2022-11-10T11:37:55.000Z,14.00
2022-11-10T11:40:58.123Z,13.97
2022-11-10T11:43:58.501Z,14.01
2022-11-10T11:46:49.499Z,14.02
2022-11-10T11:50:01.492Z,14.01
2022-11-10T11:52:49.322Z,14.13
2022-11-10T11:56:03.685Z,14.08
2022-11-10T11:59:13.725Z,14.16
2022-11-10T12:02:02.769Z,14.15
2022-11-10T12:05:19.973Z,14.16
2022-11-10T12:08:11.332Z,14.18
2022-11-10T12:11:10.460Z,14.23
2022-11-10T12:14:04.786Z,14.23
2022-11-10T12:17:02.657Z,14.15
2022-11-10T12:20:01.990Z,14.06
2022-11-10T12:22:53.018Z,14.01
2022-11-10T12:25:53.803Z,14.04
2022-11-10T12:28:47.614Z,14.03
2022-11-10T12:31:35.567Z,14.00
2022-11-10T12:34:38.881Z,14.09
2022-11-10T12:37:41.050Z,14.12
2022-11-10T12:40:55.126Z,14.13
2022-11-10T12:43:55.611Z,14.13
2022-11-10T12:46:46.985Z,14.13
2022-11-10T12:49:41.243Z,14.17
2022-11-10T12:52:43.523Z,14.16
2022-11-10T12:55:52.798Z,14.14
2022-11-10T12:58:37.787Z,14.18
2022-11-10T13:01:23.337Z,14.33
2022-11-10T13:04:08.493Z,14.39
2022-11-10T13:07:00.771Z,14.48
2022-11-10T13:09:46.380Z,14.47
2022-11-10T13:12:31.575Z,14.52
2022-11-10T13:15:35.466Z,14.58
2022-11-10T13:18:32.704Z,14.67
2022-11-10T13:21:18.297Z,14.74
2022-11-10T13:24:03.627Z,14.84
2022-11-10T13:26:50.752Z,14.86
2022-11-10T13:29:48.108Z,14.99
2022-11-10T13:51:04.493Z,15.09
2022-11-10T13:54:17.535Z,15.12
2022-11-10T14:15:23.162Z,14.80
2022-11-10T14:18:39.664Z,14.73
2022-11-10T14:21:33.862Z,14.70
2022-11-10T14:24:25.902Z,14.63
2022-11-10T14:27:20.635Z,14.64
2022-11-10T14:30:15.017Z,14.65
2022-11-10T14:33:11.516Z,14.64
2022-11-10T14:36:02.898Z,14.59
2022-11-10T14:38:48.764Z,14.62
2022-11-10T14:41:34.396Z,14.56
2022-11-10T14:44:25.991Z,14.56
2022-11-10T14:47:31.327Z,14.59
2022-11-10T14:50:24.983Z,14.53
2022-11-10T14:53:23.155Z,14.49
2022-11-10T14:56:17.039Z,14.47
2022-11-10T14:59:06.146Z,14.44
2022-11-10T15:02:00.518Z,14.45
2022-11-10T15:04:47.642Z,14.40
2022-11-10T15:07:32.973Z,14.41
2022-11-10T15:10:25.504Z,14.36
2022-11-10T15:13:13.722Z,14.37
2022-11-10T15:16:21.460Z,14.35
2022-11-10T15:19:29.807Z,14.30
2022-11-10T15:22:33.892Z,14.22
2022-11-10T15:25:22.669Z,14.20
2022-11-10T15:28:19.758Z,14.15
2022-11-10T15:31:09.804Z,14.17
2022-11-10T15:34:01.011Z,14.17
2022-11-10T15:36:46.354Z,14.12
2022-11-10T15:39:31.639Z,14.13
2022-11-10T15:42:23.084Z,14.14
2022-11-10T15:45:08.733Z,14.15
2022-11-10T15:47:53.577Z,14.19
2022-11-10T15:50:40.135Z,14.20
2022-11-10T15:53:30.897Z,14.18
2022-11-10T15:56:21.696Z,14.23
2022-11-10T15:59:06.903Z,14.22
2022-11-10T16:01:52.701Z,14.21
2022-11-10T16:04:38.235Z,14.25
2022-11-10T16:07:23.672Z,14.26
2022-11-10T16:10:09.128Z,14.29
2022-11-10T16:12:55.059Z,14.27
2022-11-10T16:15:42.157Z,14.26
2022-11-10T16:18:31.017Z,14.26
2022-11-10T16:21:19.965Z,14.22
2022-11-10T16:24:05.107Z,14.18
2022-11-10T16:26:50.412Z,14.18
2022-11-10T16:29:36.518Z,14.16
2022-11-10T16:32:21.842Z,14.12
2022-11-10T16:35:13.160Z,14.11
2022-11-10T16:37:58.278Z,14.06
2022-11-10T16:40:43.699Z,14.01
2022-11-10T16:43:30.960Z,13.98
2022-11-10T16:46:28.467Z,13.89
2022-11-10T16:49:39.643Z,13.83
2022-11-10T16:52:26.318Z,13.82
2022-11-10T16:55:13.871Z,13.73
2022-11-10T16:57:59.325Z,13.73
2022-11-10T17:00:47.267Z,13.67
2022-11-10T17:03:36.735Z,13.67
2022-11-10T17:06:24.804Z,13.65
2022-11-10T17:09:28.837Z,13.71
2022-11-10T17:12:14.877Z,13.64
2022-11-10T17:15:00.350Z,13.61
2022-11-10T17:17:48.483Z,13.62
2022-11-10T17:20:37.908Z,13.60
2022-11-10T17:23:25.609Z,13.65
2022-11-10T17:26:17.655Z,13.66
2022-11-10T17:29:03.191Z,13.56
2022-11-10T17:31:50.323Z,13.50
2022-11-10T17:34:35.485Z,13.41
2022-11-10T17:37:20.714Z,13.34
2022-11-10T17:40:27.479Z,13.30
2022-11-10T17:43:13.402Z,13.23
2022-11-10T17:45:58.441Z,13.23
2022-11-10T17:48:43.976Z,13.23
2022-11-10T17:51:31.964Z,13.24
2022-11-10T17:54:17.627Z,13.26
2022-11-10T17:57:04.479Z,13.28
2022-11-10T17:59:49.819Z,13.30
2022-11-10T18:02:35.119Z,13.32
2022-11-10T18:05:20.601Z,13.35
2022-11-10T18:08:05.642Z,13.40
2022-11-10T18:10:52.465Z,13.38
2022-11-10T18:13:39.154Z,13.39
2022-11-10T18:16:24.635Z,13.40
2022-11-10T18:19:10.603Z,13.41
2022-11-10T18:21:55.899Z,13.41
2022-11-10T18:24:42.534Z,13.44
2022-11-10T18:27:30.576Z,13.46
2022-11-10T18:30:17.044Z,13.46
2022-11-10T18:33:03.361Z,13.50
2022-11-10T18:35:48.716Z,13.49
2022-11-10T18:38:33.994Z,13.45
2022-11-10T18:41:37.709Z,13.40
2022-11-10T18:44:22.889Z,13.46
2022-11-10T18:47:11.770Z,13.51
2022-11-10T18:49:56.719Z,13.52
2022-11-10T18:52:42.016Z,13.50
2022-11-10T18:55:27.246Z,13.49
2022-11-10T18:58:12.514Z,13.52
2022-11-10T19:01:09.448Z,13.55
2022-11-10T19:03:54.888Z,13.57
2022-11-10T19:06:40.667Z,13.57
2022-11-10T19:09:26.052Z,13.75
2022-11-10T19:12:11.954Z,14.00
2022-11-10T19:14:57.184Z,14.08
2022-11-10T19:17:42.450Z,14.09
2022-11-10T19:20:27.805Z,14.16
2022-11-10T19:23:12.883Z,14.30
2022-11-10T19:26:05.862Z,14.30
2022-11-10T19:28:53.461Z,14.27
2022-11-10T19:31:38.671Z,14.29
2022-11-10T19:34:23.949Z,14.37
2022-11-10T19:37:09.190Z,14.39
2022-11-10T19:39:54.338Z,14.40
2022-11-10T19:42:39.697Z,14.35
2022-11-10T19:45:24.915Z,14.20
2022-11-10T19:48:10.185Z,14.23
2022-11-10T19:50:56.619Z,14.32
2022-11-10T19:53:43.401Z,14.30
2022-11-10T19:56:32.144Z,14.27
2022-11-10T19:59:19.309Z,14.34
2022-11-10T20:02:04.636Z,14.45
2022-11-10T20:05:19.064Z,14.53
2022-11-10T20:08:12.059Z,14.44
2022-11-10T20:11:21.447Z,14.47
2022-11-10T20:14:07.014Z,14.50
2022-11-10T20:16:53.433Z,14.52
2022-11-10T20:19:41.253Z,14.47
2022-11-10T20:22:26.918Z,14.40
2022-11-10T20:25:12.289Z,14.44
2022-11-10T20:27:58.864Z,14.55
2022-11-10T20:30:44.487Z,14.59
2022-11-10T20:33:31.261Z,14.66
2022-11-10T20:36:36.881Z,14.65
2022-11-10T20:39:22.384Z,14.75
2022-11-10T20:42:07.617Z,14.74
2022-11-10T20:44:52.954Z,14.74
2022-11-10T20:47:38.264Z,14.72
2022-11-10T20:50:24.637Z,14.70
2022-11-10T20:53:10.090Z,14.71
2022-11-10T20:55:57.920Z,14.76
2022-11-10T20:58:43.091Z,14.78
2022-11-10T21:01:28.590Z,14.80
2022-11-10T21:04:13.857Z,14.89
2022-11-10T21:06:59.073Z,14.85
2022-11-10T21:09:44.185Z,14.94
2022-11-10T21:12:50.881Z,14.87
2022-11-10T21:15:40.080Z,14.84
2022-11-10T21:18:28.536Z,14.88
2022-11-10T21:21:34.457Z,14.92
2022-11-10T21:24:20.033Z,15.01
2022-11-10T21:27:05.508Z,14.99
2022-11-10T21:29:50.702Z,14.96
2022-11-10T21:32:35.996Z,14.97
2022-11-10T21:35:21.754Z,15.07
2022-11-10T21:38:07.353Z,15.20
2022-11-10T21:40:53.055Z,15.10
2022-11-10T21:43:38.863Z,15.07
2022-11-10T21:46:24.602Z,15.00
2022-11-10T21:49:09.915Z,15.03
2022-11-10T21:51:55.153Z,15.01
2022-11-10T21:54:40.471Z,15.01
2022-11-10T21:57:25.724Z,15.02
2022-11-10T22:00:11.020Z,14.96
2022-11-10T22:03:01.047Z,15.01
2022-11-10T22:05:46.083Z,15.03
2022-11-10T22:08:32.037Z,14.97
2022-11-10T22:11:38.020Z,14.88
2022-11-10T22:14:41.703Z,14.88
2022-11-10T22:17:45.403Z,14.76
2022-11-10T22:20:30.574Z,14.77
2022-11-10T22:23:15.868Z,14.79
2022-11-10T22:26:01.037Z,14.76
2022-11-10T22:28:46.816Z,14.78
2022-11-10T22:31:33.808Z,14.78
2022-11-10T22:34:20.175Z,14.70
2022-11-10T22:37:05.529Z,14.66
2022-11-10T22:40:09.245Z,14.75
2022-11-10T22:43:12.980Z,14.72
2022-11-10T22:45:58.358Z,14.73
2022-11-10T22:48:43.503Z,14.70
2022-11-10T22:51:30.707Z,14.70
2022-11-10T22:54:20.961Z,14.68
2022-11-10T22:57:06.410Z,14.69
2022-11-10T22:59:51.645Z,14.66
2022-11-10T23:02:36.883Z,14.63
2022-11-10T23:05:22.155Z,14.62
2022-11-10T23:08:07.513Z,14.65
2022-11-10T23:11:04.606Z,14.68
2022-11-10T23:13:50.695Z,14.66
2022-11-10T23:16:36.006Z,14.65
2022-11-10T23:19:21.290Z,14.73
2022-11-10T23:22:06.655Z,14.78
2022-11-10T23:24:57.056Z,14.79
2022-11-10T23:27:42.812Z,14.85
2022-11-10T23:30:28.333Z,14.80
2022-11-10T23:33:13.715Z,14.85
2022-11-10T23:35:58.877Z,14.84
2022-11-10T23:38:45.814Z,14.87
2022-11-10T23:41:31.415Z,14.87
2022-11-10T23:44:16.717Z,14.89
2022-11-10T23:47:02.001Z,14.86
2022-11-10T23:49:47.522Z,14.85
2022-11-10T23:52:35.194Z,14.81
2022-11-10T23:55:20.213Z,14.82
2022-11-10T23:58:05.640Z,14.80
